createdAt,value
2022-10-05T00:01:53.126Z,68.49
2022-10-05T00:04:22.833Z,69.08
2022-10-05T00:07:15.362Z,68.95
2022-10-05T00:09:43.962Z,68.98
2022-10-05T00:12:19.001Z,68.99
2022-10-05T00:14:49.808Z,68.93
2022-10-05T00:17:20.237Z,69.53
2022-10-05T00:19:52.060Z,68.68
2022-10-05T00:22:21.655Z,68.79
2022-10-05T00:24:55.468Z,68.88
2022-10-05T00:27:31.338Z,69.21
2022-10-05T00:30:01.163Z,69.29
2022-10-05T00:32:27.634Z,69.00
2022-10-05T00:34:54.258Z,69.15
2022-10-05T00:37:20.880Z,68.54
2022-10-05T00:39:47.337Z,68.70
2022-10-05T00:42:41.730Z,68.25
2022-10-05T00:45:33.402Z,68.35
2022-10-05T00:48:02.859Z,68.59
2022-10-05T00:50:59.842Z,68.61
2022-10-05T00:53:29.382Z,68.32
2022-10-05T00:56:20.346Z,68.32
2022-10-05T00:59:10.386Z,68.49
2022-10-05T01:01:43.161Z,68.53
2022-10-05T01:04:21.243Z,68.22
2022-10-05T01:07:02.980Z,67.97
2022-10-05T01:09:44.809Z,68.62
2022-10-05T01:12:19.910Z,68.81
2022-10-05T01:14:57.329Z,68.59
2022-10-05T01:17:37.360Z,68.21
2022-10-05T01:20:27.158Z,68.33
2022-10-05T01:23:15.505Z,68.60
2022-10-05T01:26:15.963Z,68.43
2022-10-05T01:29:30.787Z,68.39
2022-10-05T01:32:05.006Z,68.36
2022-10-05T01:34:34.520Z,68.35
2022-10-05T01:37:04.873Z,68.15
2022-10-05T01:39:37.495Z,68.74
2022-10-05T01:42:17.124Z,68.38
2022-10-05T01:44:49.108Z,68.97
2022-10-05T01:47:45.307Z,68.95
2022-10-05T01:50:23.227Z,68.12
2022-10-05T01:53:14.430Z,68.40
2022-10-05T01:55:59.741Z,68.58
2022-10-05T01:58:35.791Z,68.79
2022-10-05T02:01:35.891Z,68.85
2022-10-05T02:04:42.631Z,68.91
2022-10-05T02:07:14.674Z,68.50
2022-10-05T02:09:52.363Z,68.85
2022-10-05T02:12:23.567Z,68.78
2022-10-05T02:14:55.357Z,68.66
2022-10-05T02:17:38.672Z,68.01
2022-10-05T02:20:10.231Z,68.07
2022-10-05T02:22:45.017Z,68.21
2022-10-05T02:25:15.801Z,68.31
2022-10-05T02:27:52.233Z,68.37
2022-10-05T02:30:19.569Z,68.17
2022-10-05T02:32:56.069Z,67.88
2022-10-05T02:35:22.886Z,68.03
2022-10-05T02:37:57.398Z,68.13
2022-10-05T02:40:42.793Z,68.37
2022-10-05T02:43:21.483Z,68.15
2022-10-05T02:46:01.124Z,68.05
2022-10-05T02:48:43.234Z,68.13
2022-10-05T02:51:21.001Z,68.48
2022-10-05T02:54:03.460Z,68.35
2022-10-05T02:56:41.046Z,68.67
2022-10-05T02:59:16.538Z,68.33
2022-10-05T03:01:50.447Z,68.59
2022-10-05T03:04:20.070Z,68.80
2022-10-05T03:06:55.950Z,68.45
2022-10-05T03:09:28.382Z,68.40
2022-10-05T03:12:12.504Z,68.55
2022-10-05T03:14:57.954Z,68.91
2022-10-05T03:17:47.573Z,69.03
2022-10-05T03:20:41.493Z,68.69
2022-10-05T03:23:24.125Z,68.69
2022-10-05T03:26:17.088Z,68.72
2022-10-05T03:29:02.003Z,68.41
2022-10-05T03:31:37.573Z,68.18
2022-10-05T03:34:15.373Z,67.76
2022-10-05T03:37:10.113Z,68.60
2022-10-05T03:39:45.005Z,67.48
2022-10-05T03:42:24.443Z,67.57
2022-10-05T03:45:02.244Z,67.58
2022-10-05T03:47:34.770Z,67.48
2022-10-05T03:50:13.840Z,67.55
2022-10-05T03:52:55.072Z,67.09
2022-10-05T03:55:29.502Z,67.45
2022-10-05T03:58:00.524Z,67.71
2022-10-05T04:00:30.089Z,67.60
2022-10-05T04:03:15.918Z,67.34
2022-10-05T04:05:59.265Z,67.65
2022-10-05T04:09:00.809Z,67.41
2022-10-05T04:11:42.696Z,67.13
2022-10-05T04:14:30.976Z,67.27
2022-10-05T04:17:18.147Z,67.47
2022-10-05T04:20:01.827Z,67.59
2022-10-05T04:22:35.191Z,67.54
2022-10-05T04:25:14.995Z,67.97
2022-10-05T04:27:50.981Z,67.93
2022-10-05T04:30:22.237Z,67.74
2022-10-05T04:32:59.980Z,68.17
2022-10-05T04:35:41.757Z,68.47
2022-10-05T04:38:29.461Z,68.47
2022-10-05T04:41:28.381Z,68.89
2022-10-05T04:44:13.050Z,68.73
2022-10-05T04:47:19.488Z,69.06
2022-10-05T04:50:04.685Z,69.05
2022-10-05T04:53:10.322Z,69.25
2022-10-05T04:56:07.507Z,69.77
2022-10-05T04:58:51.705Z,69.27
2022-10-05T05:01:49.103Z,69.68
2022-10-05T05:04:24.853Z,69.98
2022-10-05T05:07:21.050Z,70.46
2022-10-05T05:10:18.588Z,70.24
2022-10-05T05:12:48.031Z,70.42
2022-10-05T05:15:33.306Z,70.40
2022-10-05T05:18:42.975Z,69.99
2022-10-05T05:21:43.157Z,70.89
2022-10-05T05:24:38.882Z,70.79
2022-10-05T05:27:20.706Z,71.00
2022-10-05T05:29:52.983Z,70.97
2022-10-05T05:32:53.683Z,71.57
2022-10-05T05:35:45.138Z,71.20
2022-10-05T05:38:23.737Z,71.82
2022-10-05T05:40:53.167Z,71.63
2022-10-05T05:43:26.749Z,72.17
2022-10-05T05:46:51.227Z,72.52
2022-10-05T05:49:21.865Z,72.50
2022-10-05T05:52:04.586Z,72.69
2022-10-05T05:54:38.368Z,72.61
2022-10-05T05:57:17.559Z,73.09
2022-10-05T06:00:08.144Z,72.60
2022-10-05T06:02:46.201Z,73.30
2022-10-05T06:05:30.958Z,72.70
2022-10-05T06:08:03.222Z,72.46
2022-10-05T06:10:38.344Z,72.46
2022-10-05T06:13:32.665Z,72.70
2022-10-05T06:16:09.501Z,72.54
2022-10-05T06:18:39.852Z,72.39
2022-10-05T06:21:21.958Z,72.44
2022-10-05T06:24:05.060Z,72.39
2022-10-05T06:26:39.466Z,71.98
2022-10-05T06:29:12.477Z,72.10
2022-10-05T06:31:59.096Z,72.35
2022-10-05T06:34:50.392Z,71.64
2022-10-05T06:37:50.163Z,71.99
2022-10-05T06:40:47.546Z,71.65
2022-10-05T06:43:32.957Z,71.66
2022-10-05T06:46:31.385Z,70.94
2022-10-05T06:49:16.356Z,70.85
2022-10-05T06:52:04.436Z,70.68
2022-10-05T06:54:51.785Z,70.27
2022-10-05T06:57:43.396Z,69.75
2022-10-05T07:00:27.952Z,69.90
2022-10-05T07:02:57.403Z,69.88
2022-10-05T07:05:52.538Z,69.46
2022-10-05T07:08:46.838Z,69.01
2022-10-05T07:11:16.324Z,68.74
2022-10-05T07:13:52.281Z,68.17
2022-10-05T07:16:33.984Z,67.37
2022-10-05T07:19:18.955Z,68.02
2022-10-05T07:22:00.647Z,67.96
2022-10-05T07:24:54.082Z,67.21
2022-10-05T07:27:31.990Z,66.99
2022-10-05T07:30:12.382Z,67.15
2022-10-05T07:33:05.382Z,67.47
2022-10-05T07:35:59.871Z,67.33
2022-10-05T07:38:48.010Z,66.95
2022-10-05T07:41:24.445Z,67.52
2022-10-05T07:44:17.203Z,67.06
2022-10-05T07:46:55.428Z,67.28
2022-10-05T07:49:59.848Z,66.94
2022-10-05T07:52:48.756Z,67.54
2022-10-05T07:55:21.577Z,67.24
2022-10-05T07:58:13.293Z,67.67
2022-10-05T08:00:53.039Z,67.71
2022-10-05T08:03:41.196Z,67.35
2022-10-05T08:06:15.399Z,67.99
2022-10-05T08:08:57.501Z,67.48
2022-10-05T08:11:33.761Z,67.38
2022-10-05T08:14:12.250Z,67.71
2022-10-05T08:16:38.931Z,67.00
2022-10-05T08:19:15.210Z,67.96
2022-10-05T08:21:47.170Z,67.33
2022-10-05T08:24:22.901Z,67.83
2022-10-05T08:27:02.123Z,66.25
2022-10-05T08:29:42.256Z,66.55
2022-10-05T08:32:22.697Z,66.26
2022-10-05T08:34:52.184Z,66.55
2022-10-05T08:37:27.459Z,66.88
2022-10-05T08:40:30.085Z,66.94
2022-10-05T08:43:05.694Z,65.95
2022-10-05T08:46:00.602Z,65.36
2022-10-05T08:48:30.107Z,65.80
2022-10-05T08:51:16.533Z,65.89
2022-10-05T08:53:55.165Z,66.00
2022-10-05T08:56:28.965Z,65.94
2022-10-05T08:59:14.055Z,66.52
2022-10-05T09:02:01.072Z,66.20
2022-10-05T09:04:42.827Z,65.39
2022-10-05T09:07:24.532Z,65.68
2022-10-05T09:10:12.953Z,66.15
2022-10-05T09:12:58.560Z,65.79
2022-10-05T09:15:49.636Z,66.65
2022-10-05T09:18:40.856Z,66.22
2022-10-05T09:21:31.944Z,65.82
2022-10-05T09:24:01.419Z,65.67
2022-10-05T09:26:58.690Z,66.24
2022-10-05T09:29:49.999Z,66.13
2022-10-05T09:32:27.969Z,65.45
2022-10-05T09:35:09.613Z,64.78
2022-10-05T09:37:48.321Z,65.07
2022-10-05T09:40:55.157Z,64.57
2022-10-05T09:43:49.308Z,63.57
2022-10-05T09:46:31.368Z,62.93
2022-10-05T09:49:10.964Z,63.84
2022-10-05T09:51:59.888Z,63.57
2022-10-05T09:54:28.897Z,62.77
2022-10-05T09:57:21.711Z,61.40
2022-10-05T10:00:28.174Z,61.58
2022-10-05T10:03:24.991Z,61.20
2022-10-05T10:06:24.912Z,60.25
2022-10-05T10:09:17.871Z,61.12
2022-10-05T10:12:13.335Z,61.40
2022-10-05T10:14:51.775Z,61.45
2022-10-05T10:17:44.227Z,61.10
2022-10-05T10:20:33.848Z,60.98
2022-10-05T10:23:35.979Z,60.63
2022-10-05T10:26:19.364Z,61.43
2022-10-05T10:29:24.443Z,61.62
2022-10-05T10:32:17.591Z,61.86
2022-10-05T10:35:19.333Z,61.29
2022-10-05T10:38:28.636Z,61.73
2022-10-05T10:41:24.668Z,61.83
2022-10-05T10:44:16.321Z,61.57
2022-10-05T10:47:16.990Z,60.55
2022-10-05T10:50:02.141Z,60.95
2022-10-05T10:53:06.230Z,59.73
2022-10-05T10:55:54.628Z,60.84
2022-10-05T10:58:27.361Z,61.09
2022-10-05T11:01:09.137Z,60.49
2022-10-05T11:04:04.800Z,60.69
2022-10-05T11:06:37.463Z,60.78
2022-10-05T11:09:39.661Z,61.04
2022-10-05T11:12:34.708Z,61.19
2022-10-05T11:15:13.136Z,62.20
2022-10-05T11:18:01.390Z,61.96
2022-10-05T11:20:46.587Z,62.67
2022-10-05T11:23:39.026Z,62.64
2022-10-05T11:26:37.976Z,62.82
2022-10-05T11:29:23.034Z,63.23
2022-10-05T11:32:18.918Z,63.89
2022-10-05T11:35:10.779Z,64.62
2022-10-05T11:38:30.966Z,65.38
2022-10-05T11:41:34.714Z,66.51
2022-10-05T11:44:10.275Z,67.45
2022-10-05T11:46:40.583Z,67.47
2022-10-05T11:49:45.901Z,71.18
2022-10-05T11:52:23.877Z,69.95
2022-10-05T11:55:15.033Z,71.03
2022-10-05T11:57:56.036Z,70.42
2022-10-05T12:00:40.516Z,71.69
2022-10-05T12:03:44.974Z,73.17
2022-10-05T12:06:21.882Z,72.95
2022-10-05T12:09:13.448Z,74.12
2022-10-05T12:11:57.675Z,74.64
2022-10-05T12:14:27.558Z,74.61
2022-10-05T12:17:34.332Z,76.58
2022-10-05T12:20:14.820Z,76.21
2022-10-05T12:22:48.706Z,76.08
2022-10-05T12:25:36.535Z,76.27
2022-10-05T12:28:09.544Z,77.10
2022-10-05T12:31:21.472Z,77.70
2022-10-05T12:34:01.744Z,77.84
2022-10-05T12:36:46.221Z,77.78
2022-10-05T12:39:30.975Z,79.33
2022-10-05T12:42:06.925Z,78.77
2022-10-05T12:45:11.963Z,79.24
2022-10-05T12:48:00.089Z,78.58
2022-10-05T12:50:34.516Z,79.87
2022-10-05T12:53:15.125Z,79.95
2022-10-05T12:55:53.311Z,79.96
2022-10-05T12:58:41.365Z,80.20
2022-10-05T13:01:32.332Z,81.66
2022-10-05T13:04:19.066Z,80.97
2022-10-05T13:06:52.414Z,81.01
2022-10-05T13:09:32.103Z,80.11
2022-10-05T13:12:07.496Z,80.40
2022-10-05T13:14:53.795Z,81.95
2022-10-05T13:17:40.441Z,81.55
2022-10-05T13:20:29.270Z,80.88
2022-10-05T13:23:04.250Z,81.07
2022-10-05T13:25:43.061Z,80.81
2022-10-05T13:28:28.915Z,81.16
2022-10-05T13:31:23.076Z,80.22
2022-10-05T13:34:21.684Z,79.18
2022-10-05T13:37:17.407Z,78.58
2022-10-05T13:40:10.422Z,79.19
2022-10-05T13:43:02.058Z,78.66
2022-10-05T13:45:55.796Z,78.62
2022-10-05T13:48:55.295Z,79.76
2022-10-05T13:51:25.917Z,78.20
2022-10-05T13:54:15.328Z,79.13
2022-10-05T13:57:13.761Z,79.16
2022-10-05T13:59:49.906Z,78.78
2022-10-05T14:02:23.135Z,79.21
2022-10-05T14:04:57.677Z,79.34
2022-10-05T14:07:48.445Z,78.67
2022-10-05T14:10:39.627Z,78.90
2022-10-05T14:13:49.208Z,78.44
2022-10-05T14:16:21.828Z,78.37
2022-10-05T14:18:51.626Z,78.97
2022-10-05T14:21:24.765Z,79.08
2022-10-05T14:23:52.114Z,78.78
2022-10-05T14:26:35.397Z,78.59
2022-10-05T14:29:14.456Z,78.92
2022-10-05T14:32:17.219Z,78.19
2022-10-05T14:34:55.178Z,77.71
2022-10-05T14:37:25.261Z,76.97
2022-10-05T14:39:57.501Z,76.50
2022-10-05T14:42:28.390Z,76.77
2022-10-05T14:45:14.081Z,75.42
2022-10-05T14:48:00.608Z,75.09
2022-10-05T14:50:31.640Z,75.58
2022-10-05T14:53:04.340Z,75.16
2022-10-05T14:55:47.030Z,73.87
2022-10-05T14:58:25.624Z,74.25
2022-10-05T15:01:14.051Z,72.99
2022-10-05T15:03:59.606Z,73.90
2022-10-05T15:06:42.417Z,72.68
2022-10-05T15:09:30.947Z,72.31
2022-10-05T15:12:00.960Z,73.15
2022-10-05T15:14:34.072Z,73.01
2022-10-05T15:17:20.322Z,73.36
2022-10-05T15:20:05.180Z,72.92
2022-10-05T15:22:46.427Z,71.03
2022-10-05T15:25:17.152Z,71.83
2022-10-05T15:28:11.022Z,71.76
2022-10-05T15:30:42.714Z,71.81
2022-10-05T15:33:31.450Z,70.42
2022-10-05T15:36:14.263Z,70.53
2022-10-05T15:39:06.373Z,70.84
2022-10-05T15:41:35.630Z,70.46
2022-10-05T15:44:19.954Z,71.25
2022-10-05T15:46:58.209Z,71.56
2022-10-05T15:49:37.711Z,71.36
2022-10-05T15:52:13.078Z,72.23
2022-10-05T15:54:54.958Z,72.66
2022-10-05T15:57:33.975Z,72.26
2022-10-05T16:00:14.895Z,71.64
2022-10-05T16:02:53.520Z,72.03
2022-10-05T16:05:48.002Z,72.92
2022-10-05T16:08:53.053Z,72.39
2022-10-05T16:11:37.797Z,71.81
2022-10-05T16:14:33.137Z,71.58
2022-10-05T16:16:59.641Z,71.94
2022-10-05T16:19:31.897Z,72.09
2022-10-05T16:22:43.371Z,70.97
2022-10-05T16:25:32.051Z,70.67
2022-10-05T16:28:29.141Z,70.22
2022-10-05T16:31:06.753Z,70.06
2022-10-05T16:33:54.753Z,70.33
2022-10-05T16:36:32.063Z,69.88
2022-10-05T16:39:07.206Z,69.35
2022-10-05T16:41:44.201Z,68.07
2022-10-05T16:44:22.977Z,69.54
2022-10-05T16:46:57.750Z,69.12
2022-10-05T16:49:42.999Z,68.54
2022-10-05T16:52:18.891Z,68.18
2022-10-05T16:54:51.460Z,69.49
2022-10-05T16:57:23.735Z,68.45
2022-10-05T17:00:17.478Z,69.02
2022-10-05T17:03:10.242Z,69.36
2022-10-05T17:06:07.726Z,69.94
2022-10-05T17:08:46.609Z,69.28
2022-10-05T17:11:31.455Z,68.78
2022-10-05T17:14:22.629Z,69.01
2022-10-05T17:17:20.700Z,68.95
2022-10-05T17:20:18.165Z,68.55
2022-10-05T17:23:41.160Z,69.20
2022-10-05T17:26:33.700Z,68.48
2022-10-05T17:29:16.451Z,69.43
2022-10-05T17:32:21.564Z,69.04
2022-10-05T17:35:02.892Z,69.02
2022-10-05T17:37:37.925Z,69.41
2022-10-05T17:40:28.529Z,69.79
2022-10-05T17:43:01.151Z,69.74
2022-10-05T17:45:33.729Z,69.62
2022-10-05T17:48:03.706Z,69.62
2022-10-05T17:51:06.452Z,70.74
2022-10-05T17:54:05.460Z,69.73
2022-10-05T17:56:47.107Z,70.69
2022-10-05T17:59:45.405Z,70.80
2022-10-05T18:02:40.834Z,70.58
2022-10-05T18:05:14.533Z,70.81
2022-10-05T18:08:07.607Z,70.62
2022-10-05T18:10:37.847Z,70.47
2022-10-05T18:13:35.760Z,70.21
2022-10-05T18:16:02.475Z,70.17
2022-10-05T18:18:34.169Z,69.91
2022-10-05T18:21:17.780Z,70.31
2022-10-05T18:24:01.612Z,70.46
2022-10-05T18:26:34.024Z,69.67
2022-10-05T18:29:39.384Z,69.45
2022-10-05T18:32:47.263Z,70.43
2022-10-05T18:35:25.999Z,70.12
2022-10-05T18:38:04.774Z,70.34
2022-10-05T18:40:49.945Z,70.13
2022-10-05T18:43:52.900Z,70.69
2022-10-05T18:46:37.775Z,70.82
2022-10-05T18:49:39.666Z,71.71
2022-10-05T18:52:09.343Z,71.48
2022-10-05T18:54:54.943Z,72.01
2022-10-05T18:57:50.111Z,72.12
2022-10-05T19:00:20.791Z,71.92
2022-10-05T19:02:52.766Z,71.83
2022-10-05T19:05:46.462Z,72.08
2022-10-05T19:08:29.606Z,72.62
2022-10-05T19:11:24.389Z,72.72
2022-10-05T19:13:56.431Z,72.16
2022-10-05T19:16:47.320Z,72.45
2022-10-05T19:19:38.598Z,72.70
2022-10-05T19:22:26.333Z,72.95
2022-10-05T19:25:20.935Z,72.13
2022-10-05T19:28:21.631Z,72.73
2022-10-05T19:30:59.306Z,72.45
2022-10-05T19:33:47.246Z,72.45
2022-10-05T19:36:37.886Z,72.30
2022-10-05T19:39:12.071Z,72.16
2022-10-05T19:41:50.607Z,71.96
2022-10-05T19:44:28.893Z,72.16
2022-10-05T19:47:14.843Z,72.36
2022-10-05T19:49:54.276Z,72.35
2022-10-05T19:52:31.711Z,72.14
2022-10-05T19:55:11.058Z,71.61
2022-10-05T19:57:52.446Z,72.27
2022-10-05T20:00:31.359Z,71.58
2022-10-05T20:03:19.236Z,71.82
2022-10-05T20:05:46.060Z,71.40
2022-10-05T20:08:18.300Z,72.47
2022-10-05T20:10:46.489Z,72.10
2022-10-05T20:13:22.190Z,72.85
2022-10-05T20:16:39.822Z,72.42
2022-10-05T20:19:46.190Z,72.27
2022-10-05T20:22:39.598Z,72.79
2022-10-05T20:25:30.406Z,72.45
2022-10-05T20:27:57.479Z,72.19
2022-10-05T20:30:27.487Z,71.80
2022-10-05T20:33:09.189Z,72.21
2022-10-05T20:35:35.684Z,72.17
2022-10-05T20:38:02.402Z,71.35
2022-10-05T20:40:29.887Z,71.38
2022-10-05T20:42:57.681Z,71.20
2022-10-05T20:45:24.355Z,71.88
2022-10-05T20:47:51.017Z,71.58
2022-10-05T20:50:17.995Z,71.85
2022-10-05T20:52:44.604Z,71.75
2022-10-05T20:55:12.357Z,71.49
2022-10-05T20:57:42.086Z,70.85
2022-10-05T21:00:10.293Z,71.49
2022-10-05T21:02:37.219Z,70.97
2022-10-05T21:05:04.547Z,71.01
2022-10-05T21:07:31.288Z,71.58
2022-10-05T21:10:01.096Z,70.91
2022-10-05T21:12:27.927Z,71.46
2022-10-05T21:14:54.487Z,71.31
2022-10-05T21:17:21.045Z,70.62
2022-10-05T21:19:47.819Z,71.14
2022-10-05T21:22:14.638Z,70.92
2022-10-05T21:24:41.234Z,70.42
2022-10-05T21:27:08.197Z,71.14
2022-10-05T21:29:36.381Z,70.29
2022-10-05T21:32:03.715Z,70.88
2022-10-05T21:34:30.285Z,69.90
2022-10-05T21:36:56.780Z,69.83
2022-10-05T21:39:24.679Z,70.10
2022-10-05T21:41:51.253Z,70.78
2022-10-05T21:44:18.283Z,70.23
2022-10-05T21:46:45.026Z,70.27
2022-10-05T21:49:13.341Z,70.57
2022-10-05T21:51:41.609Z,69.88
2022-10-05T21:54:17.440Z,70.10
2022-10-05T21:56:48.231Z,70.56
2022-10-05T21:59:19.211Z,70.12
2022-10-05T22:01:45.980Z,69.86
2022-10-05T22:04:12.511Z,70.64
2022-10-05T22:06:39.179Z,69.91
2022-10-05T22:09:05.735Z,70.60
2022-10-05T22:11:32.788Z,69.80
2022-10-05T22:14:02.700Z,70.14
2022-10-05T22:16:39.011Z,70.01
2022-10-05T22:19:10.587Z,69.96
2022-10-05T22:21:41.408Z,70.29
2022-10-05T22:24:09.179Z,69.71
2022-10-05T22:26:35.962Z,69.75
2022-10-05T22:29:03.474Z,70.61
2022-10-05T22:31:30.155Z,69.58
2022-10-05T22:33:56.761Z,70.08
2022-10-05T22:36:23.312Z,69.71
2022-10-05T22:38:49.945Z,70.58
2022-10-05T22:41:18.278Z,70.11
2022-10-05T22:43:48.558Z,70.34
2022-10-05T22:46:15.815Z,70.90
2022-10-05T22:48:43.245Z,71.07
2022-10-05T22:51:10.237Z,71.24
2022-10-05T22:53:36.751Z,70.27
2022-10-05T22:56:09.018Z,70.81
2022-10-05T22:58:36.325Z,71.25
2022-10-05T23:01:08.467Z,71.79
2022-10-05T23:03:35.529Z,72.14
2022-10-05T23:06:05.062Z,71.52
2022-10-05T23:08:33.156Z,71.21
2022-10-05T23:11:07.339Z,71.71
2022-10-05T23:13:33.877Z,71.69
2022-10-05T23:16:27.832Z,72.40
2022-10-05T23:18:55.366Z,71.95
2022-10-05T23:21:23.832Z,72.12
2022-10-05T23:23:53.636Z,72.42
2022-10-05T23:26:23.224Z,71.76
2022-10-05T23:28:50.219Z,72.04
2022-10-05T23:31:19.546Z,72.49
2022-10-05T23:33:46.221Z,72.81
2022-10-05T23:36:16.031Z,72.84
2022-10-05T23:38:43.042Z,72.47
2022-10-05T23:41:09.735Z,73.60
2022-10-05T23:43:36.904Z,72.60
2022-10-05T23:46:06.322Z,73.29
2022-10-05T23:48:33.536Z,73.68
2022-10-05T23:51:00.526Z,73.90
2022-10-05T23:53:27.013Z,73.42
2022-10-05T23:55:54.245Z,74.15
2022-10-05T23:58:21.606Z,74.20
